sensor_id;sensor_type;location;lat;lon;timestamp;temperature;humidity
45096;DHT22;30858;51.108;8.068;2023-05-25T00:00:25;4.90;99.90
45096;DHT22;30858;51.108;8.068;2023-05-25T00:02:50;4.90;99.90
45096;DHT22;30858;51.108;8.068;2023-05-25T00:05:18;4.90;99.90
45096;DHT22;30858;51.108;8.068;2023-05-25T00:07:44;4.90;99.90
45096;DHT22;30858;51.108;8.068;2023-05-25T00:10:10;5.00;99.90
45096;DHT22;30858;51.108;8.068;2023-05-25T00:12:35;5.00;99.90
45096;DHT22;30858;51.108;8.068;2023-05-25T00:15:03;4.90;99.90
45096;DHT22;30858;51.108;8.068;2023-05-25T00:17:29;4.90;99.90
45096;DHT22;30858;51.108;8.068;2023-05-25T00:19:57;4.80;99.90
45096;DHT22;30858;51.108;8.068;2023-05-25T00:22:23;4.70;99.90
45096;DHT22;30858;51.108;8.068;2023-05-25T00:24:48;4.70;99.90
45096;DHT22;30858;51.108;8.068;2023-05-25T00:27:14;4.70;99.90
45096;DHT22;30858;51.108;8.068;2023-05-25T00:29:39;4.70;99.90
45096;DHT22;30858;51.108;8.068;2023-05-25T00:32:05;4.70;99.90
45096;DHT22;30858;51.108;8.068;2023-05-25T00:34:31;4.70;99.90
45096;DHT22;30858;51.108;8.068;2023-05-25T00:36:56;4.70;99.90
45096;DHT22;30858;51.108;8.068;2023-05-25T00:39:22;4.60;99.90
45096;DHT22;30858;51.108;8.068;2023-05-25T00:41:48;4.60;99.90
45096;DHT22;30858;51.108;8.068;2023-05-25T00:44:14;4.60;99.90
45096;DHT22;30858;51.108;8.068;2023-05-25T00:46:46;4.50;99.90
45096;DHT22;30858;51.108;8.068;2023-05-25T00:49:13;4.50;99.90
45096;DHT22;30858;51.108;8.068;2023-05-25T00:51:40;4.40;99.90
45096;DHT22;30858;51.108;8.068;2023-05-25T00:54:06;4.40;99.90
45096;DHT22;30858;51.108;8.068;2023-05-25T00:56:34;4.40;99.90
45096;DHT22;30858;51.108;8.068;2023-05-25T00:59:05;4.40;99.90
45096;DHT22;30858;51.108;8.068;2023-05-25T01:01:34;4.30;99.90
45096;DHT22;30858;51.108;8.068;2023-05-25T01:04:05;4.30;99.90
45096;DHT22;30858;51.108;8.068;2023-05-25T01:06:32;4.30;99.90
45096;DHT22;30858;51.108;8.068;2023-05-25T01:09:02;4.20;99.90
45096;DHT22;30858;51.108;8.068;2023-05-25T01:11:36;4.20;99.90
45096;DHT22;30858;51.108;8.068;2023-05-25T01:14:03;4.20;99.90
45096;DHT22;30858;51.108;8.068;2023-05-25T01:16:28;4.10;99.90
45096;DHT22;30858;51.108;8.068;2023-05-25T01:18:54;4.10;99.90
45096;DHT22;30858;51.108;8.068;2023-05-25T01:24:28;4.10;99.90
45096;DHT22;30858;51.108;8.068;2023-05-25T01:30:05;3.90;99.90
45096;DHT22;30858;51.108;8.068;2023-05-25T01:32:32;4.00;99.90
45096;DHT22;30858;51.108;8.068;2023-05-25T01:35:00;4.00;99.90
45096;DHT22;30858;51.108;8.068;2023-05-25T01:37:26;4.00;99.90
45096;DHT22;30858;51.108;8.068;2023-05-25T01:39:52;4.00;99.90
45096;DHT22;30858;51.108;8.068;2023-05-25T01:42:17;4.00;99.90
45096;DHT22;30858;51.108;8.068;2023-05-25T01:44:43;4.00;99.90
45096;DHT22;30858;51.108;8.068;2023-05-25T01:47:15;4.00;99.90
45096;DHT22;30858;51.108;8.068;2023-05-25T01:50:05;3.90;99.90
45096;DHT22;30858;51.108;8.068;2023-05-25T01:52:35;3.90;99.90
45096;DHT22;30858;51.108;8.068;2023-05-25T01:55:07;3.90;99.90
45096;DHT22;30858;51.108;8.068;2023-05-25T01:57:37;3.90;99.90
45096;DHT22;30858;51.108;8.068;2023-05-25T02:00:07;3.90;99.90
45096;DHT22;30858;51.108;8.068;2023-05-25T02:02:34;3.80;99.90
45096;DHT22;30858;51.108;8.068;2023-05-25T02:05:00;3.80;99.90
45096;DHT22;30858;51.108;8.068;2023-05-25T02:07:26;3.90;99.90
45096;DHT22;30858;51.108;8.068;2023-05-25T02:09:52;3.90;99.90
45096;DHT22;30858;51.108;8.068;2023-05-25T02:12:17;3.90;99.90
45096;DHT22;30858;51.108;8.068;2023-05-25T02:14:43;3.90;99.90
45096;DHT22;30858;51.108;8.068;2023-05-25T02:17:10;3.90;99.90
45096;DHT22;30858;51.108;8.068;2023-05-25T02:22:12;4.00;99.90
45096;DHT22;30858;51.108;8.068;2023-05-25T02:24:37;4.00;99.90
45096;DHT22;30858;51.108;8.068;2023-05-25T02:27:06;4.00;99.90
45096;DHT22;30858;51.108;8.068;2023-05-25T02:29:31;4.10;99.90
45096;DHT22;30858;51.108;8.068;2023-05-25T02:31:58;4.10;99.90
45096;DHT22;30858;51.108;8.068;2023-05-25T02:34:23;4.10;99.90
45096;DHT22;30858;51.108;8.068;2023-05-25T02:36:49;4.10;99.90
45096;DHT22;30858;51.108;8.068;2023-05-25T02:39:15;4.10;99.90
45096;DHT22;30858;51.108;8.068;2023-05-25T02:41:41;4.00;99.90
45096;DHT22;30858;51.108;8.068;2023-05-25T02:44:06;4.00;99.90
45096;DHT22;30858;51.108;8.068;2023-05-25T02:46:32;4.10;99.90
45096;DHT22;30858;51.108;8.068;2023-05-25T02:48:58;4.00;99.90
45096;DHT22;30858;51.108;8.068;2023-05-25T02:51:24;4.10;99.90
45096;DHT22;30858;51.108;8.068;2023-05-25T02:53:49;4.10;99.90
45096;DHT22;30858;51.108;8.068;2023-05-25T02:56:16;4.10;99.90
45096;DHT22;30858;51.108;8.068;2023-05-25T02:58:41;4.10;99.90
45096;DHT22;30858;51.108;8.068;2023-05-25T03:01:07;4.00;99.90
45096;DHT22;30858;51.108;8.068;2023-05-25T03:03:35;4.00;99.90
45096;DHT22;30858;51.108;8.068;2023-05-25T03:06:01;4.00;99.90
45096;DHT22;30858;51.108;8.068;2023-05-25T03:08:28;4.00;99.90
45096;DHT22;30858;51.108;8.068;2023-05-25T03:10:54;4.00;99.90
45096;DHT22;30858;51.108;8.068;2023-05-25T03:13:20;4.00;99.90
45096;DHT22;30858;51.108;8.068;2023-05-25T03:15:45;4.00;99.90
45096;DHT22;30858;51.108;8.068;2023-05-25T03:18:11;4.00;99.90
45096;DHT22;30858;51.108;8.068;2023-05-25T03:20:36;4.10;99.90
45096;DHT22;30858;51.108;8.068;2023-05-25T03:23:02;4.00;99.90
45096;DHT22;30858;51.108;8.068;2023-05-25T03:25:27;4.10;99.90
45096;DHT22;30858;51.108;8.068;2023-05-25T03:27:53;4.00;99.90
45096;DHT22;30858;51.108;8.068;2023-05-25T03:30:20;4.00;99.90
45096;DHT22;30858;51.108;8.068;2023-05-25T03:32:46;4.00;99.90
45096;DHT22;30858;51.108;8.068;2023-05-25T03:35:11;3.90;99.90
45096;DHT22;30858;51.108;8.068;2023-05-25T03:37:37;4.00;99.90
45096;DHT22;30858;51.108;8.068;2023-05-25T03:40:03;4.00;99.90
45096;DHT22;30858;51.108;8.068;2023-05-25T03:42:29;4.00;99.90
45096;DHT22;30858;51.108;8.068;2023-05-25T03:44:54;4.00;99.90
45096;DHT22;30858;51.108;8.068;2023-05-25T03:47:20;4.00;99.90
45096;DHT22;30858;51.108;8.068;2023-05-25T03:49:45;4.00;99.90
45096;DHT22;30858;51.108;8.068;2023-05-25T03:52:11;4.10;99.90
45096;DHT22;30858;51.108;8.068;2023-05-25T03:54:36;4.20;99.90
45096;DHT22;30858;51.108;8.068;2023-05-25T03:57:02;4.20;99.90
45096;DHT22;30858;51.108;8.068;2023-05-25T03:59:28;4.10;99.90
45096;DHT22;30858;51.108;8.068;2023-05-25T04:01:54;4.10;99.90
45096;DHT22;30858;51.108;8.068;2023-05-25T04:04:19;4.10;99.90
45096;DHT22;30858;51.108;8.068;2023-05-25T04:06:45;4.10;99.90
45096;DHT22;30858;51.108;8.068;2023-05-25T04:09:13;4.10;99.90
45096;DHT22;30858;51.108;8.068;2023-05-25T04:11:39;4.10;99.90
45096;DHT22;30858;51.108;8.068;2023-05-25T04:14:05;4.10;99.90
45096;DHT22;30858;51.108;8.068;2023-05-25T04:16:31;4.10;99.90
45096;DHT22;30858;51.108;8.068;2023-05-25T04:18:56;4.10;99.90
45096;DHT22;30858;51.108;8.068;2023-05-25T04:21:22;4.20;99.90
45096;DHT22;30858;51.108;8.068;2023-05-25T04:23:47;4.30;99.90
45096;DHT22;30858;51.108;8.068;2023-05-25T04:26:13;4.20;99.90
45096;DHT22;30858;51.108;8.068;2023-05-25T04:28:40;4.30;99.90
45096;DHT22;30858;51.108;8.068;2023-05-25T04:31:06;4.30;99.90
45096;DHT22;30858;51.108;8.068;2023-05-25T04:33:34;4.40;99.90
45096;DHT22;30858;51.108;8.068;2023-05-25T04:36:06;4.40;99.90
45096;DHT22;30858;51.108;8.068;2023-05-25T04:38:33;4.40;99.90
45096;DHT22;30858;51.108;8.068;2023-05-25T04:40:59;4.40;99.90
45096;DHT22;30858;51.108;8.068;2023-05-25T04:43:28;4.50;99.90
45096;DHT22;30858;51.108;8.068;2023-05-25T04:45:58;4.60;99.90
45096;DHT22;30858;51.108;8.068;2023-05-25T04:48:24;4.70;99.90
45096;DHT22;30858;51.108;8.068;2023-05-25T04:50:54;4.70;99.90
45096;DHT22;30858;51.108;8.068;2023-05-25T04:53:21;4.70;99.90
45096;DHT22;30858;51.108;8.068;2023-05-25T04:55:47;4.70;99.90
45096;DHT22;30858;51.108;8.068;2023-05-25T04:58:13;4.70;99.90
45096;DHT22;30858;51.108;8.068;2023-05-25T05:00:39;4.70;99.90
45096;DHT22;30858;51.108;8.068;2023-05-25T05:03:05;4.80;99.90
45096;DHT22;30858;51.108;8.068;2023-05-25T05:05:31;4.80;99.90
45096;DHT22;30858;51.108;8.068;2023-05-25T05:07:56;4.90;99.90
45096;DHT22;30858;51.108;8.068;2023-05-25T05:10:22;4.90;99.90
45096;DHT22;30858;51.108;8.068;2023-05-25T05:12:47;4.90;99.90
45096;DHT22;30858;51.108;8.068;2023-05-25T05:15:13;5.00;99.90
45096;DHT22;30858;51.108;8.068;2023-05-25T05:17:39;5.00;99.90
45096;DHT22;30858;51.108;8.068;2023-05-25T05:20:05;5.00;99.90
45096;DHT22;30858;51.108;8.068;2023-05-25T05:22:32;5.00;99.90
45096;DHT22;30858;51.108;8.068;2023-05-25T05:24:57;5.10;99.90
45096;DHT22;30858;51.108;8.068;2023-05-25T05:27:23;5.00;99.90
45096;DHT22;30858;51.108;8.068;2023-05-25T05:29:50;5.00;99.90
45096;DHT22;30858;51.108;8.068;2023-05-25T05:32:16;5.00;99.90
45096;DHT22;30858;51.108;8.068;2023-05-25T05:34:41;4.90;99.90
45096;DHT22;30858;51.108;8.068;2023-05-25T05:37:07;5.00;99.90
45096;DHT22;30858;51.108;8.068;2023-05-25T05:39:32;5.20;99.90
45096;DHT22;30858;51.108;8.068;2023-05-25T05:41:58;5.40;99.90
45096;DHT22;30858;51.108;8.068;2023-05-25T05:44:24;5.60;99.90
45096;DHT22;30858;51.108;8.068;2023-05-25T05:46:49;5.60;99.90
45096;DHT22;30858;51.108;8.068;2023-05-25T05:49:15;5.60;99.90
45096;DHT22;30858;51.108;8.068;2023-05-25T05:51:41;5.50;99.90
45096;DHT22;30858;51.108;8.068;2023-05-25T05:54:06;5.50;99.90
45096;DHT22;30858;51.108;8.068;2023-05-25T05:56:32;5.40;99.90
45096;DHT22;30858;51.108;8.068;2023-05-25T05:58:57;5.40;99.90
45096;DHT22;30858;51.108;8.068;2023-05-25T06:01:23;5.50;99.90
45096;DHT22;30858;51.108;8.068;2023-05-25T06:03:49;5.60;99.90
45096;DHT22;30858;51.108;8.068;2023-05-25T06:06:16;5.90;99.90
45096;DHT22;30858;51.108;8.068;2023-05-25T06:08:42;6.10;99.90
45096;DHT22;30858;51.108;8.068;2023-05-25T06:11:08;6.20;99.90
45096;DHT22;30858;51.108;8.068;2023-05-25T06:13:34;6.40;99.90
45096;DHT22;30858;51.108;8.068;2023-05-25T06:15:59;6.50;99.90
45096;DHT22;30858;51.108;8.068;2023-05-25T06:18:25;6.70;99.90
45096;DHT22;30858;51.108;8.068;2023-05-25T06:20:50;6.80;99.90
45096;DHT22;30858;51.108;8.068;2023-05-25T06:23:16;6.90;99.90
45096;DHT22;30858;51.108;8.068;2023-05-25T06:25:46;7.10;99.90
45096;DHT22;30858;51.108;8.068;2023-05-25T06:28:12;7.00;99.90
45096;DHT22;30858;51.108;8.068;2023-05-25T06:30:37;7.10;99.90
45096;DHT22;30858;51.108;8.068;2023-05-25T06:33:03;7.40;99.90
45096;DHT22;30858;51.108;8.068;2023-05-25T06:35:28;7.50;99.90
45096;DHT22;30858;51.108;8.068;2023-05-25T06:37:54;7.80;99.90
45096;DHT22;30858;51.108;8.068;2023-05-25T06:40:20;8.10;99.90
45096;DHT22;30858;51.108;8.068;2023-05-25T06:42:46;8.40;99.90
45096;DHT22;30858;51.108;8.068;2023-05-25T06:45:12;8.70;99.90
45096;DHT22;30858;51.108;8.068;2023-05-25T06:47:37;8.80;99.90
45096;DHT22;30858;51.108;8.068;2023-05-25T06:50:04;9.00;99.90
45096;DHT22;30858;51.108;8.068;2023-05-25T06:52:29;9.20;99.90
45096;DHT22;30858;51.108;8.068;2023-05-25T06:54:56;9.60;99.90
45096;DHT22;30858;51.108;8.068;2023-05-25T06:57:22;9.80;99.90
45096;DHT22;30858;51.108;8.068;2023-05-25T06:59:48;10.10;99.90
45096;DHT22;30858;51.108;8.068;2023-05-25T07:02:14;10.50;99.90
45096;DHT22;30858;51.108;8.068;2023-05-25T07:04:39;10.80;99.90
45096;DHT22;30858;51.108;8.068;2023-05-25T07:07:05;11.00;99.90
45096;DHT22;30858;51.108;8.068;2023-05-25T07:09:31;11.20;99.90
45096;DHT22;30858;51.108;8.068;2023-05-25T07:11:57;11.30;99.90
45096;DHT22;30858;51.108;8.068;2023-05-25T07:14:22;11.60;99.90
45096;DHT22;30858;51.108;8.068;2023-05-25T07:16:48;11.70;99.90
45096;DHT22;30858;51.108;8.068;2023-05-25T07:19:14;11.90;99.90
45096;DHT22;30858;51.108;8.068;2023-05-25T07:21:39;11.90;99.90
45096;DHT22;30858;51.108;8.068;2023-05-25T07:24:05;11.80;99.90
45096;DHT22;30858;51.108;8.068;2023-05-25T07:26:31;11.90;99.90
45096;DHT22;30858;51.108;8.068;2023-05-25T07:28:57;12.10;99.90
45096;DHT22;30858;51.108;8.068;2023-05-25T07:31:23;12.50;99.90
45096;DHT22;30858;51.108;8.068;2023-05-25T07:33:48;12.80;99.90
45096;DHT22;30858;51.108;8.068;2023-05-25T07:36:14;13.30;99.90
45096;DHT22;30858;51.108;8.068;2023-05-25T07:38:40;13.70;99.90
45096;DHT22;30858;51.108;8.068;2023-05-25T07:41:06;13.90;99.90
45096;DHT22;30858;51.108;8.068;2023-05-25T07:43:31;14.10;99.90
45096;DHT22;30858;51.108;8.068;2023-05-25T07:45:57;14.00;99.90
45096;DHT22;30858;51.108;8.068;2023-05-25T07:48:23;14.10;99.90
45096;DHT22;30858;51.108;8.068;2023-05-25T07:50:48;14.10;99.90
45096;DHT22;30858;51.108;8.068;2023-05-25T07:53:14;14.00;99.90
45096;DHT22;30858;51.108;8.068;2023-05-25T07:55:39;14.20;99.90
45096;DHT22;30858;51.108;8.068;2023-05-25T07:58:05;14.70;99.90
45096;DHT22;30858;51.108;8.068;2023-05-25T08:00:32;14.80;99.90
45096;DHT22;30858;51.108;8.068;2023-05-25T08:02:57;14.90;99.90
45096;DHT22;30858;51.108;8.068;2023-05-25T08:05:23;14.70;99.90
45096;DHT22;30858;51.108;8.068;2023-05-25T08:07:49;15.00;99.90
45096;DHT22;30858;51.108;8.068;2023-05-25T08:10:14;14.90;99.90
45096;DHT22;30858;51.108;8.068;2023-05-25T08:12:40;14.90;99.90
45096;DHT22;30858;51.108;8.068;2023-05-25T08:15:06;14.70;99.90
45096;DHT22;30858;51.108;8.068;2023-05-25T08:17:32;14.60;99.90
45096;DHT22;30858;51.108;8.068;2023-05-25T08:19:57;14.60;99.90
45096;DHT22;30858;51.108;8.068;2023-05-25T08:22:23;14.80;99.90
45096;DHT22;30858;51.108;8.068;2023-05-25T08:24:48;14.80;99.90
45096;DHT22;30858;51.108;8.068;2023-05-25T08:27:14;15.10;99.90
45096;DHT22;30858;51.108;8.068;2023-05-25T08:29:40;15.30;99.90
45096;DHT22;30858;51.108;8.068;2023-05-25T08:32:06;15.10;99.90
45096;DHT22;30858;51.108;8.068;2023-05-25T08:34:32;15.40;99.90
45096;DHT22;30858;51.108;8.068;2023-05-25T08:36:57;15.50;99.90
45096;DHT22;30858;51.108;8.068;2023-05-25T08:39:23;15.60;99.90
45096;DHT22;30858;51.108;8.068;2023-05-25T08:41:49;15.30;99.90
45096;DHT22;30858;51.108;8.068;2023-05-25T08:44:15;15.70;99.90
45096;DHT22;30858;51.108;8.068;2023-05-25T08:46:41;16.00;99.90
45096;DHT22;30858;51.108;8.068;2023-05-25T08:49:12;16.00;99.90
45096;DHT22;30858;51.108;8.068;2023-05-25T08:51:49;15.80;99.90
45096;DHT22;30858;51.108;8.068;2023-05-25T08:54:17;16.00;99.90
45096;DHT22;30858;51.108;8.068;2023-05-25T08:56:56;15.90;99.90
45096;DHT22;30858;51.108;8.068;2023-05-25T08:59:59;16.10;99.90
45096;DHT22;30858;51.108;8.068;2023-05-25T09:02:34;16.00;99.90
45096;DHT22;30858;51.108;8.068;2023-05-25T09:05:02;15.90;99.90
45096;DHT22;30858;51.108;8.068;2023-05-25T09:07:30;16.10;99.90
45096;DHT22;30858;51.108;8.068;2023-05-25T09:09:56;16.20;99.90
45096;DHT22;30858;51.108;8.068;2023-05-25T09:12:22;16.50;99.90
45096;DHT22;30858;51.108;8.068;2023-05-25T09:14:48;16.30;99.90
45096;DHT22;30858;51.108;8.068;2023-05-25T09:17:16;16.30;99.90
45096;DHT22;30858;51.108;8.068;2023-05-25T09:19:43;16.50;99.90
45096;DHT22;30858;51.108;8.068;2023-05-25T09:22:09;16.50;99.90
45096;DHT22;30858;51.108;8.068;2023-05-25T09:24:37;16.60;99.90
45096;DHT22;30858;51.108;8.068;2023-05-25T09:27:08;16.90;99.90
45096;DHT22;30858;51.108;8.068;2023-05-25T09:29:35;17.10;99.90
45096;DHT22;30858;51.108;8.068;2023-05-25T09:32:03;16.60;99.90
45096;DHT22;30858;51.108;8.068;2023-05-25T09:34:30;17.20;99.90
45096;DHT22;30858;51.108;8.068;2023-05-25T09:37:00;17.40;99.90
45096;DHT22;30858;51.108;8.068;2023-05-25T09:39:27;17.30;99.90
45096;DHT22;30858;51.108;8.068;2023-05-25T09:44:19;18.00;99.90
45096;DHT22;30858;51.108;8.068;2023-05-25T09:46:45;17.90;99.90
45096;DHT22;30858;51.108;8.068;2023-05-25T09:49:10;17.70;99.90
45096;DHT22;30858;51.108;8.068;2023-05-25T09:51:36;17.10;99.90
45096;DHT22;30858;51.108;8.068;2023-05-25T09:54:03;16.30;99.90
45096;DHT22;30858;51.108;8.068;2023-05-25T09:56:31;16.60;99.90
45096;DHT22;30858;51.108;8.068;2023-05-25T09:58:57;17.40;99.90
45096;DHT22;30858;51.108;8.068;2023-05-25T10:01:23;17.70;99.90
45096;DHT22;30858;51.108;8.068;2023-05-25T10:03:49;17.80;99.90
45096;DHT22;30858;51.108;8.068;2023-05-25T10:06:16;17.30;99.90
45096;DHT22;30858;51.108;8.068;2023-05-25T10:08:46;17.00;99.90
45096;DHT22;30858;51.108;8.068;2023-05-25T10:11:13;17.30;99.90
45096;DHT22;30858;51.108;8.068;2023-05-25T10:13:40;17.40;99.90
45096;DHT22;30858;51.108;8.068;2023-05-25T10:16:09;17.70;99.90
45096;DHT22;30858;51.108;8.068;2023-05-25T10:18:47;17.60;99.90
45096;DHT22;30858;51.108;8.068;2023-05-25T10:21:15;18.00;99.90
45096;DHT22;30858;51.108;8.068;2023-05-25T10:23:47;17.80;99.90
45096;DHT22;30858;51.108;8.068;2023-05-25T10:26:17;17.60;99.90
45096;DHT22;30858;51.108;8.068;2023-05-25T10:28:45;17.60;99.90
45096;DHT22;30858;51.108;8.068;2023-05-25T10:31:12;18.00;99.90
45096;DHT22;30858;51.108;8.068;2023-05-25T10:33:39;18.30;99.90
45096;DHT22;30858;51.108;8.068;2023-05-25T10:36:05;18.30;99.90
45096;DHT22;30858;51.108;8.068;2023-05-25T10:38:32;18.30;99.90
45096;DHT22;30858;51.108;8.068;2023-05-25T10:40:58;18.20;99.90
45096;DHT22;30858;51.108;8.068;2023-05-25T10:43:25;18.00;99.90
45096;DHT22;30858;51.108;8.068;2023-05-25T10:45:51;18.30;99.90
45096;DHT22;30858;51.108;8.068;2023-05-25T10:48:17;18.40;99.90
45096;DHT22;30858;51.108;8.068;2023-05-25T10:50:49;18.60;99.90
45096;DHT22;30858;51.108;8.068;2023-05-25T10:53:15;18.70;99.90
45096;DHT22;30858;51.108;8.068;2023-05-25T10:55:48;18.60;99.90
45096;DHT22;30858;51.108;8.068;2023-05-25T10:58:15;18.70;99.90
45096;DHT22;30858;51.108;8.068;2023-05-25T11:00:41;18.20;99.90
45096;DHT22;30858;51.108;8.068;2023-05-25T11:03:08;18.80;99.90
45096;DHT22;30858;51.108;8.068;2023-05-25T11:05:40;19.00;99.90
45096;DHT22;30858;51.108;8.068;2023-05-25T11:08:09;18.70;99.90
45096;DHT22;30858;51.108;8.068;2023-05-25T11:13:33;18.70;99.90
45096;DHT22;30858;51.108;8.068;2023-05-25T11:18:55;19.10;99.90
45096;DHT22;30858;51.108;8.068;2023-05-25T11:26:29;19.10;99.90
45096;DHT22;30858;51.108;8.068;2023-05-25T11:28:56;18.40;99.90
45096;DHT22;30858;51.108;8.068;2023-05-25T11:31:30;18.80;99.90
45096;DHT22;30858;51.108;8.068;2023-05-25T11:33:57;18.50;99.90
45096;DHT22;30858;51.108;8.068;2023-05-25T11:36:23;18.50;99.90
45096;DHT22;30858;51.108;8.068;2023-05-25T11:38:50;18.80;99.90
45096;DHT22;30858;51.108;8.068;2023-05-25T11:41:17;18.90;99.90
45096;DHT22;30858;51.108;8.068;2023-05-25T11:43:50;17.80;99.90
45096;DHT22;30858;51.108;8.068;2023-05-25T11:46:16;18.70;99.90
45096;DHT22;30858;51.108;8.068;2023-05-25T11:48:55;19.00;99.90
45096;DHT22;30858;51.108;8.068;2023-05-25T11:51:23;19.10;99.90
45096;DHT22;30858;51.108;8.068;2023-05-25T11:53:49;18.80;99.90
45096;DHT22;30858;51.108;8.068;2023-05-25T11:56:16;18.90;99.90
45096;DHT22;30858;51.108;8.068;2023-05-25T11:58:43;18.70;99.90
45096;DHT22;30858;51.108;8.068;2023-05-25T12:01:19;18.50;99.90
45096;DHT22;30858;51.108;8.068;2023-05-25T12:03:51;18.60;99.90
45096;DHT22;30858;51.108;8.068;2023-05-25T12:06:33;18.60;99.90
45096;DHT22;30858;51.108;8.068;2023-05-25T12:09:00;18.90;99.90
45096;DHT22;30858;51.108;8.068;2023-05-25T12:11:28;18.70;99.90
45096;DHT22;30858;51.108;8.068;2023-05-25T12:13:54;18.50;99.90
45096;DHT22;30858;51.108;8.068;2023-05-25T12:16:20;18.60;99.90
45096;DHT22;30858;51.108;8.068;2023-05-25T12:18:46;19.00;99.90
45096;DHT22;30858;51.108;8.068;2023-05-25T12:21:12;19.40;99.90
45096;DHT22;30858;51.108;8.068;2023-05-25T12:23:38;19.50;99.90
45096;DHT22;30858;51.108;8.068;2023-05-25T12:26:12;20.10;99.90
45096;DHT22;30858;51.108;8.068;2023-05-25T12:28:38;20.00;99.90
45096;DHT22;30858;51.108;8.068;2023-05-25T12:31:23;19.90;99.90
45096;DHT22;30858;51.108;8.068;2023-05-25T12:36:38;18.30;99.90
45096;DHT22;30858;51.108;8.068;2023-05-25T12:39:05;18.50;99.90
45096;DHT22;30858;51.108;8.068;2023-05-25T12:41:31;18.80;99.90
45096;DHT22;30858;51.108;8.068;2023-05-25T12:43:57;18.90;99.90
45096;DHT22;30858;51.108;8.068;2023-05-25T12:46:23;18.50;99.90
45096;DHT22;30858;51.108;8.068;2023-05-25T12:48:49;18.60;99.90
45096;DHT22;30858;51.108;8.068;2023-05-25T12:51:15;18.50;99.90
45096;DHT22;30858;51.108;8.068;2023-05-25T12:53:51;18.10;99.90
45096;DHT22;30858;51.108;8.068;2023-05-25T12:56:16;18.00;99.90
45096;DHT22;30858;51.108;8.068;2023-05-25T12:58:42;17.90;99.90
45096;DHT22;30858;51.108;8.068;2023-05-25T13:01:08;18.00;99.90
45096;DHT22;30858;51.108;8.068;2023-05-25T13:03:33;17.70;99.90
45096;DHT22;30858;51.108;8.068;2023-05-25T13:06:00;18.20;99.90
45096;DHT22;30858;51.108;8.068;2023-05-25T13:08:27;18.10;99.90
45096;DHT22;30858;51.108;8.068;2023-05-25T13:10:52;18.50;99.90
45096;DHT22;30858;51.108;8.068;2023-05-25T13:13:18;18.80;99.90
45096;DHT22;30858;51.108;8.068;2023-05-25T13:15:43;19.00;99.90
45096;DHT22;30858;51.108;8.068;2023-05-25T13:18:09;19.20;99.90
45096;DHT22;30858;51.108;8.068;2023-05-25T13:20:34;18.80;99.90
45096;DHT22;30858;51.108;8.068;2023-05-25T13:23:01;18.60;99.90
45096;DHT22;30858;51.108;8.068;2023-05-25T13:25:27;18.30;99.90
45096;DHT22;30858;51.108;8.068;2023-05-25T13:27:54;18.30;99.90
45096;DHT22;30858;51.108;8.068;2023-05-25T13:30:22;18.60;99.90
45096;DHT22;30858;51.108;8.068;2023-05-25T13:32:48;18.10;99.90
45096;DHT22;30858;51.108;8.068;2023-05-25T13:35:13;18.60;99.90
45096;DHT22;30858;51.108;8.068;2023-05-25T13:37:59;18.70;99.90
45096;DHT22;30858;51.108;8.068;2023-05-25T13:40:24;18.80;99.90
45096;DHT22;30858;51.108;8.068;2023-05-25T13:42:50;19.00;99.90
45096;DHT22;30858;51.108;8.068;2023-05-25T13:45:15;18.90;99.90
45096;DHT22;30858;51.108;8.068;2023-05-25T13:47:42;19.00;99.90
45096;DHT22;30858;51.108;8.068;2023-05-25T13:50:08;19.00;99.90
45096;DHT22;30858;51.108;8.068;2023-05-25T13:52:34;19.10;99.90
45096;DHT22;30858;51.108;8.068;2023-05-25T13:55:01;19.00;99.90
45096;DHT22;30858;51.108;8.068;2023-05-25T13:57:26;19.10;99.90
45096;DHT22;30858;51.108;8.068;2023-05-25T13:59:52;18.20;99.90
45096;DHT22;30858;51.108;8.068;2023-05-25T14:02:17;18.80;99.90
45096;DHT22;30858;51.108;8.068;2023-05-25T14:04:43;19.10;99.90
45096;DHT22;30858;51.108;8.068;2023-05-25T14:07:08;19.10;99.90
45096;DHT22;30858;51.108;8.068;2023-05-25T14:09:34;19.50;99.90
45096;DHT22;30858;51.108;8.068;2023-05-25T14:11:59;19.70;99.90
45096;DHT22;30858;51.108;8.068;2023-05-25T14:14:25;19.20;99.90
45096;DHT22;30858;51.108;8.068;2023-05-25T14:16:51;19.10;99.90
45096;DHT22;30858;51.108;8.068;2023-05-25T14:19:18;18.90;99.90
45096;DHT22;30858;51.108;8.068;2023-05-25T14:21:43;18.30;99.90
45096;DHT22;30858;51.108;8.068;2023-05-25T14:24:09;18.10;99.90
45096;DHT22;30858;51.108;8.068;2023-05-25T14:26:35;18.30;99.90
45096;DHT22;30858;51.108;8.068;2023-05-25T14:29:01;18.90;99.90
45096;DHT22;30858;51.108;8.068;2023-05-25T14:31:27;18.80;99.90
45096;DHT22;30858;51.108;8.068;2023-05-25T14:33:52;18.50;99.90
45096;DHT22;30858;51.108;8.068;2023-05-25T14:36:18;18.40;99.90
45096;DHT22;30858;51.108;8.068;2023-05-25T14:38:44;18.30;99.90
45096;DHT22;30858;51.108;8.068;2023-05-25T14:41:09;18.40;99.90
45096;DHT22;30858;51.108;8.068;2023-05-25T14:43:35;18.70;99.90
45096;DHT22;30858;51.108;8.068;2023-05-25T14:46:00;19.00;99.90
45096;DHT22;30858;51.108;8.068;2023-05-25T14:48:26;18.60;99.90
45096;DHT22;30858;51.108;8.068;2023-05-25T14:50:51;18.70;99.90
45096;DHT22;30858;51.108;8.068;2023-05-25T14:53:17;18.80;99.90
45096;DHT22;30858;51.108;8.068;2023-05-25T14:55:43;18.70;99.90
45096;DHT22;30858;51.108;8.068;2023-05-25T14:58:09;19.10;99.90
45096;DHT22;30858;51.108;8.068;2023-05-25T15:00:34;19.10;99.90
45096;DHT22;30858;51.108;8.068;2023-05-25T15:03:00;18.70;99.90
45096;DHT22;30858;51.108;8.068;2023-05-25T15:05:25;18.00;99.90
45096;DHT22;30858;51.108;8.068;2023-05-25T15:07:51;18.70;99.90
45096;DHT22;30858;51.108;8.068;2023-05-25T15:10:16;19.30;99.90
45096;DHT22;30858;51.108;8.068;2023-05-25T15:12:42;19.10;99.90
45096;DHT22;30858;51.108;8.068;2023-05-25T15:15:08;18.90;99.90
45096;DHT22;30858;51.108;8.068;2023-05-25T15:17:34;18.70;99.90
45096;DHT22;30858;51.108;8.068;2023-05-25T15:20:00;19.00;99.90
45096;DHT22;30858;51.108;8.068;2023-05-25T15:22:25;19.20;99.90
45096;DHT22;30858;51.108;8.068;2023-05-25T15:24:52;19.60;99.90
45096;DHT22;30858;51.108;8.068;2023-05-25T15:27:17;18.90;99.90
45096;DHT22;30858;51.108;8.068;2023-05-25T15:29:43;18.40;99.90
45096;DHT22;30858;51.108;8.068;2023-05-25T15:32:10;19.20;99.90
45096;DHT22;30858;51.108;8.068;2023-05-25T15:34:38;18.60;99.90
45096;DHT22;30858;51.108;8.068;2023-05-25T15:37:04;18.50;99.90
45096;DHT22;30858;51.108;8.068;2023-05-25T15:39:29;18.90;99.90
45096;DHT22;30858;51.108;8.068;2023-05-25T15:41:55;19.40;99.90
45096;DHT22;30858;51.108;8.068;2023-05-25T15:44:21;19.60;99.90
45096;DHT22;30858;51.108;8.068;2023-05-25T15:46:46;19.60;99.90
45096;DHT22;30858;51.108;8.068;2023-05-25T15:49:12;19.90;99.90
45096;DHT22;30858;51.108;8.068;2023-05-25T15:51:41;19.60;99.90
45096;DHT22;30858;51.108;8.068;2023-05-25T15:54:07;19.30;99.90
45096;DHT22;30858;51.108;8.068;2023-05-25T15:56:34;19.40;99.90
45096;DHT22;30858;51.108;8.068;2023-05-25T15:59:00;19.20;99.90